Brooks, KY (40109)

11:18 PM EDT on June 24, 2017 (GMT -0400)
Ruhl Acres | | Change Station

Elev 486 ft 38.04 °N, 85.69 °W | Updated 13 seconds ago

Partly Cloudy
Partly Cloudy
64.0 °F
Feels Like 64.0 °F
N
0.0
Wind Variable Wind from West
Gusts 0.0 mph

Today
High -- | Low -- °F
--% Chance of Precip.
Yesterday
High -- | Low -- °F
Precip. -- in
Pressure 30.12 in
Visibility 10.0 miles
Clouds Mostly Cloudy 30000 ft
Dew Point 57 °F
Humidity 79%
Rainfall 0.00 in
Snow Depth Not available.
6:21 AM 9:09 PM
New Moon, 2% visible
METAR KSDF 250256Z 27007KT 10SM BKN300 21/13 A3013 RMK AO2 SLP198 T02060128 51025 $
Pressure 30.12 in
Visibility 10.0 miles
Clouds Mostly Cloudy 30000 ft
Dew Point 57 °F
Humidity 79%
Rainfall 0.00 in
Snow Depth Not available.
6:21 AM 9:09 PM
New Moon, 2% visible
METAR KSDF 250256Z 27007KT 10SM BKN300 21/13 A3013 RMK AO2 SLP198 T02060128 51025 $

Get Severe Weather Alerts

Thanks for signing up!

Be on the lookout for a verification email in your inbox.

You'll start receiving the daily forecast at 6 AM.

×

10-Day Weather Forecast

Almanac

Astronomy

Jun. 24, 2017 Rise Set
Actual Time
Civil Twilight
Nautical Twilight
Astronomical Twilight
Moon
Length of Visible Light
Length of Day
Tomorrow will be .
, % of the Moon is Illuminated

Today's Extremes

State Highs State Lows

Community

WunderPhotos

Category 6

Welcome to Category 6. This is the collective home for Weather Underground's featured writeups by Dr. Jeff Masters (right), Bob Henson (left), Chris Burt, and other regular contributors.

Nearby

Air Quality

  Air Quality AQ Index Pollutant
Not available.

Snow Depth

Station Depth Elevation

Earthquake Activity

City Distance Mag. Time & Date
Minimum magnitude displayed is 2.5.

Coastal Water Temperatures

Place Temperature

Stations

Nearby Weather Stations

Station Location Temp. Windchill Dew Point Humidity Wind Precip. Elev Updated Type
                   

Watches & Warnings

There are currently no watches in effect.